createdAt,value
2022-09-28T00:01:12.479Z,100.00
2022-09-28T00:03:20.448Z,100.00
2022-09-28T00:05:29.931Z,100.00
2022-09-28T00:07:38.873Z,100.00
2022-09-28T00:09:51.034Z,100.00
2022-09-28T00:11:59.612Z,100.00
2022-09-28T00:14:14.478Z,100.00
2022-09-28T00:16:31.501Z,100.00
2022-09-28T00:18:41.878Z,100.00
2022-09-28T00:20:50.629Z,100.00
2022-09-28T00:22:58.795Z,100.00
2022-09-28T00:25:09.875Z,100.00
2022-09-28T00:27:19.957Z,100.00
2022-09-28T00:29:30.027Z,100.00
2022-09-28T00:31:40.954Z,100.00
2022-09-28T00:33:53.113Z,100.00
2022-09-28T00:36:01.792Z,100.00
2022-09-28T00:38:09.790Z,100.00
2022-09-28T00:40:22.945Z,100.00
2022-09-28T00:42:33.893Z,100.00
2022-09-28T00:44:45.916Z,100.00
2022-09-28T00:47:01.190Z,100.00
2022-09-28T00:49:14.859Z,100.00
2022-09-28T00:51:23.331Z,100.00
2022-09-28T00:53:36.926Z,100.00
2022-09-28T00:55:49.843Z,100.00
2022-09-28T00:58:03.869Z,100.00
2022-09-28T01:00:15.945Z,100.00
2022-09-28T01:02:27.996Z,100.00
2022-09-28T01:04:38.364Z,100.00
2022-09-28T01:06:49.994Z,100.00
2022-09-28T01:09:03.053Z,100.00
2022-09-28T01:11:11.521Z,100.00
2022-09-28T01:13:20.686Z,100.00
2022-09-28T01:15:31.523Z,100.00
2022-09-28T01:17:57.897Z,100.00
2022-09-28T01:20:46.632Z,100.00
2022-09-28T01:23:29.290Z,100.00
2022-09-28T01:25:57.861Z,100.00
2022-09-28T01:28:17.375Z,100.00
2022-09-28T01:30:26.070Z,100.00
2022-09-28T01:32:41.816Z,100.00
2022-09-28T01:34:57.948Z,100.00
2022-09-28T01:37:10.111Z,100.00
2022-09-28T01:39:24.885Z,100.00
2022-09-28T01:41:38.272Z,100.00
2022-09-28T01:43:54.837Z,100.00
2022-09-28T01:46:06.032Z,100.00
2022-09-28T01:48:17.648Z,100.00
2022-09-28T01:50:29.688Z,100.00
2022-09-28T01:52:43.671Z,100.00
2022-09-28T01:54:57.706Z,100.00
2022-09-28T01:57:15.566Z,100.00
2022-09-28T01:59:30.873Z,100.00
2022-09-28T02:01:44.667Z,100.00
2022-09-28T02:03:59.847Z,100.00
2022-09-28T02:06:12.348Z,100.00
2022-09-28T02:08:25.590Z,100.00
2022-09-28T02:10:40.211Z,100.00
2022-09-28T02:12:51.873Z,100.00
2022-09-28T02:15:18.152Z,100.00
2022-09-28T02:17:26.975Z,100.00
2022-09-28T02:19:36.646Z,100.00
2022-09-28T02:21:49.775Z,100.00
2022-09-28T02:24:01.256Z,100.00
2022-09-28T02:26:15.430Z,100.00
2022-09-28T02:28:25.744Z,100.00
2022-09-28T02:30:40.660Z,100.00
2022-09-28T02:32:53.699Z,100.00
2022-09-28T02:35:02.959Z,100.00
2022-09-28T02:37:12.132Z,100.00
2022-09-28T02:39:21.356Z,100.00
2022-09-28T02:41:43.150Z,100.00
2022-09-28T02:44:01.188Z,100.00
2022-09-28T02:46:26.760Z,100.00
2022-09-28T02:49:17.453Z,100.00
2022-09-28T02:51:33.528Z,100.00
2022-09-28T02:54:04.729Z,100.00
2022-09-28T02:56:39.579Z,100.00
2022-09-28T02:58:57.558Z,100.00
2022-09-28T03:01:21.945Z,100.00
2022-09-28T03:03:40.832Z,100.00
2022-09-28T03:05:55.953Z,100.00
2022-09-28T03:08:08.338Z,100.00
2022-09-28T03:10:22.804Z,100.00
2022-09-28T03:12:35.761Z,100.00
2022-09-28T03:14:47.256Z,100.00
2022-09-28T03:16:58.081Z,100.00
2022-09-28T03:19:06.506Z,100.00
2022-09-28T03:21:15.750Z,100.00
2022-09-28T03:23:25.324Z,100.00
2022-09-28T03:25:34.112Z,100.00
2022-09-28T03:27:43.730Z,100.00
2022-09-28T03:29:54.046Z,100.00
2022-09-28T03:32:06.096Z,100.00
2022-09-28T03:34:14.608Z,100.00
2022-09-28T03:36:24.174Z,100.00
2022-09-28T03:38:32.738Z,100.00
2022-09-28T03:40:41.232Z,100.00
2022-09-28T03:42:49.659Z,100.00
2022-09-28T03:44:58.580Z,100.00
2022-09-28T03:47:10.689Z,100.00
2022-09-28T03:49:21.440Z,100.00
2022-09-28T03:51:31.599Z,100.00
2022-09-28T03:53:39.973Z,100.00
2022-09-28T03:55:50.599Z,100.00
2022-09-28T03:58:01.353Z,100.00
2022-09-28T04:00:13.054Z,100.00
2022-09-28T04:02:28.198Z,100.00
2022-09-28T04:04:37.645Z,100.00
2022-09-28T04:06:46.657Z,100.00
2022-09-28T04:08:55.726Z,100.00
2022-09-28T04:11:04.937Z,100.00
2022-09-28T04:13:13.555Z,100.00
2022-09-28T04:15:23.366Z,100.00
2022-09-28T04:17:39.238Z,100.00
2022-09-28T04:19:53.306Z,100.00
2022-09-28T04:22:18.993Z,100.00
2022-09-28T04:24:27.526Z,100.00
2022-09-28T04:26:38.145Z,100.00
2022-09-28T04:29:04.038Z,100.00
2022-09-28T04:31:16.774Z,100.00
2022-09-28T04:33:27.760Z,100.00
2022-09-28T04:35:37.236Z,100.00
2022-09-28T04:37:46.175Z,100.00
2022-09-28T04:39:54.774Z,100.00
2022-09-28T04:42:02.996Z,100.00
2022-09-28T04:44:12.154Z,100.00
2022-09-28T04:46:22.750Z,100.00
2022-09-28T04:48:43.391Z,100.00
2022-09-28T04:51:06.164Z,100.00
2022-09-28T04:53:14.364Z,100.00
2022-09-28T04:55:22.755Z,100.00
2022-09-28T04:57:31.206Z,100.00
2022-09-28T04:59:40.439Z,100.00
2022-09-28T05:01:50.292Z,100.00
2022-09-28T05:04:26.164Z,100.00
2022-09-28T05:06:53.119Z,100.00
2022-09-28T05:09:01.707Z,100.00
2022-09-28T05:11:14.117Z,100.00
2022-09-28T05:13:22.144Z,100.00
2022-09-28T05:15:31.274Z,100.00
2022-09-28T05:17:40.554Z,100.00
2022-09-28T05:20:05.105Z,100.00
2022-09-28T05:22:15.284Z,100.00
2022-09-28T05:24:28.302Z,100.00
2022-09-28T05:26:36.605Z,100.00
2022-09-28T05:28:46.715Z,100.00
2022-09-28T05:31:17.523Z,100.00
2022-09-28T05:33:49.881Z,100.00
2022-09-28T05:36:02.274Z,100.00
2022-09-28T05:38:11.441Z,100.00
2022-09-28T05:40:20.132Z,100.00
2022-09-28T05:42:29.903Z,100.00
2022-09-28T05:44:39.320Z,100.00
2022-09-28T05:46:47.443Z,100.00
2022-09-28T05:48:55.913Z,100.00
2022-09-28T05:51:07.933Z,100.00
2022-09-28T05:53:16.589Z,100.00
2022-09-28T05:55:25.307Z,100.00
2022-09-28T05:57:34.079Z,100.00
2022-09-28T05:59:43.662Z,100.00
2022-09-28T06:01:54.630Z,100.00
2022-09-28T06:04:03.132Z,100.00
2022-09-28T06:06:14.940Z,100.00
2022-09-28T06:08:30.811Z,100.00
2022-09-28T06:10:53.340Z,100.00
2022-09-28T06:13:04.068Z,100.00
2022-09-28T06:15:16.170Z,100.00
2022-09-28T06:17:25.665Z,100.00
2022-09-28T06:19:55.458Z,100.00
2022-09-28T06:22:24.706Z,100.00
2022-09-28T06:24:46.930Z,100.00
2022-09-28T06:26:55.188Z,100.00
2022-09-28T06:29:04.017Z,100.00
2022-09-28T06:31:12.737Z,100.00
2022-09-28T06:33:30.283Z,100.00
2022-09-28T06:35:39.871Z,100.00
2022-09-28T06:37:51.839Z,100.00
2022-09-28T06:40:01.314Z,100.00
2022-09-28T06:42:10.439Z,100.00
2022-09-28T06:44:58.517Z,100.00
2022-09-28T06:47:45.062Z,100.00
2022-09-28T06:50:11.273Z,100.00
2022-09-28T06:52:44.662Z,100.00
2022-09-28T06:55:10.188Z,100.00
2022-09-28T06:57:26.057Z,100.00
2022-09-28T06:59:34.954Z,100.00
2022-09-28T07:01:43.424Z,100.00
2022-09-28T07:04:12.358Z,100.00
2022-09-28T07:06:40.874Z,100.00
2022-09-28T07:09:28.288Z,100.00
2022-09-28T07:12:05.476Z,100.00
2022-09-28T07:14:45.136Z,100.00
2022-09-28T07:17:12.305Z,100.00
2022-09-28T07:19:22.314Z,100.00
2022-09-28T07:21:32.200Z,100.00
2022-09-28T07:23:52.548Z,100.00
2022-09-28T07:26:09.400Z,100.00
2022-09-28T07:28:40.682Z,100.00
2022-09-28T07:31:25.521Z,100.00
2022-09-28T07:34:00.105Z,100.00
2022-09-28T07:36:18.171Z,100.00
2022-09-28T07:38:26.677Z,100.00
2022-09-28T07:40:53.916Z,100.00
2022-09-28T07:43:07.462Z,100.00
2022-09-28T07:45:19.671Z,100.00
2022-09-28T07:47:35.004Z,100.00
2022-09-28T07:49:59.406Z,100.00
2022-09-28T07:52:28.790Z,100.00
2022-09-28T07:54:57.097Z,100.00
2022-09-28T07:57:24.447Z,100.00
2022-09-28T07:59:53.860Z,100.00
2022-09-28T08:02:26.562Z,100.00
2022-09-28T08:04:36.229Z,100.00
2022-09-28T08:06:45.513Z,100.00
2022-09-28T08:08:57.148Z,100.00
2022-09-28T08:11:19.017Z,100.00
2022-09-28T08:13:56.844Z,100.00
2022-09-28T08:16:23.623Z,100.00
2022-09-28T08:18:44.071Z,100.00
2022-09-28T08:21:07.891Z,100.00
2022-09-28T08:23:17.286Z,100.00
2022-09-28T08:25:25.559Z,98.13
2022-09-28T08:27:34.385Z,98.83
2022-09-28T08:29:44.035Z,98.80
2022-09-28T08:32:11.446Z,98.89
2022-09-28T08:34:43.643Z,99.01
2022-09-28T08:37:05.818Z,97.78
2022-09-28T08:39:34.871Z,98.01
2022-09-28T08:42:07.047Z,98.46
2022-09-28T08:44:44.777Z,97.20
2022-09-28T08:47:40.279Z,95.30
2022-09-28T08:50:16.881Z,94.59
2022-09-28T08:52:43.063Z,91.97
2022-09-28T08:55:26.246Z,90.41
2022-09-28T08:57:42.585Z,90.00
2022-09-28T08:59:54.903Z,88.70
2022-09-28T09:02:21.280Z,87.28
2022-09-28T09:04:30.086Z,86.53
2022-09-28T09:07:02.245Z,87.70
2022-09-28T09:09:22.951Z,85.76
2022-09-28T09:11:50.772Z,86.71
2022-09-28T09:14:27.243Z,87.13
2022-09-28T09:16:51.420Z,88.85
2022-09-28T09:19:38.148Z,86.25
2022-09-28T09:22:36.491Z,86.58
2022-09-28T09:24:52.761Z,86.55
2022-09-28T09:27:09.222Z,83.98
2022-09-28T09:29:32.204Z,82.98
2022-09-28T09:31:57.659Z,80.80
2022-09-28T09:34:26.158Z,80.52
2022-09-28T09:37:11.411Z,82.55
2022-09-28T09:39:55.936Z,80.50
2022-09-28T09:42:40.880Z,78.77
2022-09-28T09:45:47.327Z,81.71
2022-09-28T09:48:24.014Z,81.00
2022-09-28T09:50:39.576Z,82.69
2022-09-28T09:52:53.817Z,84.25
2022-09-28T09:55:17.990Z,83.40
2022-09-28T09:57:39.689Z,83.22
2022-09-28T10:00:00.182Z,84.40
2022-09-28T10:02:27.740Z,83.35
2022-09-28T10:04:48.502Z,82.13
2022-09-28T10:07:08.830Z,81.49
2022-09-28T10:09:27.870Z,80.46
2022-09-28T10:11:50.346Z,78.50
2022-09-28T10:13:59.259Z,78.49
2022-09-28T10:16:21.241Z,77.96
2022-09-28T10:18:38.199Z,76.00
2022-09-28T10:21:05.245Z,74.47
2022-09-28T10:23:40.028Z,73.07
2022-09-28T10:25:50.630Z,74.30
2022-09-28T10:28:04.267Z,75.74
2022-09-28T10:30:19.908Z,73.08
2022-09-28T10:32:30.725Z,75.15
2022-09-28T10:34:39.229Z,74.29
2022-09-28T10:36:58.792Z,74.13
2022-09-28T10:39:29.152Z,74.60
2022-09-28T10:41:53.134Z,74.28
2022-09-28T10:44:11.178Z,76.08
2022-09-28T10:46:40.259Z,74.79
2022-09-28T10:48:58.023Z,74.71
2022-09-28T10:51:11.173Z,73.84
2022-09-28T10:53:23.256Z,71.47
2022-09-28T10:55:43.729Z,72.48
2022-09-28T10:57:53.145Z,72.93
2022-09-28T11:00:08.896Z,72.13
2022-09-28T11:02:36.340Z,70.33
2022-09-28T11:04:56.148Z,71.13
2022-09-28T11:07:05.131Z,71.07
2022-09-28T11:09:30.923Z,70.24
2022-09-28T11:11:44.552Z,69.26
2022-09-28T11:13:55.018Z,68.77
2022-09-28T11:16:20.779Z,69.48
2022-09-28T11:18:32.655Z,68.63
2022-09-28T11:20:49.797Z,70.37
2022-09-28T11:22:59.860Z,68.93
2022-09-28T11:25:23.797Z,68.28
2022-09-28T11:27:32.244Z,70.20
2022-09-28T11:29:43.715Z,71.23
2022-09-28T11:32:16.012Z,71.43
2022-09-28T11:35:00.173Z,70.55
2022-09-28T11:37:30.471Z,70.88
2022-09-28T11:39:49.180Z,73.06
2022-09-28T11:42:07.387Z,71.53
2022-09-28T11:44:33.386Z,68.68
2022-09-28T11:47:02.893Z,71.89
2022-09-28T11:49:30.177Z,70.92
2022-09-28T11:51:43.768Z,70.13
2022-09-28T11:53:56.645Z,67.50
2022-09-28T11:56:15.121Z,70.61
2022-09-28T11:58:30.968Z,67.72
2022-09-28T12:00:47.170Z,65.08
2022-09-28T12:03:03.809Z,67.37
2022-09-28T12:05:24.267Z,68.66
2022-09-28T12:07:39.245Z,67.40
2022-09-28T12:09:58.769Z,67.52
2022-09-28T12:12:19.061Z,68.27
2022-09-28T12:14:31.821Z,65.56
2022-09-28T12:17:05.918Z,67.08
2022-09-28T12:19:22.184Z,66.61
2022-09-28T12:21:44.108Z,67.46
2022-09-28T12:23:53.752Z,68.65
2022-09-28T12:26:05.471Z,64.92
2022-09-28T12:28:25.366Z,66.00
2022-09-28T12:30:40.756Z,65.15
2022-09-28T12:32:54.114Z,66.48
2022-09-28T12:35:02.760Z,66.23
2022-09-28T12:37:30.178Z,63.31
2022-09-28T12:39:58.076Z,61.34
2022-09-28T12:42:27.920Z,63.22
2022-09-28T12:44:59.279Z,63.06
2022-09-28T12:47:37.382Z,64.72
2022-09-28T12:53:02.950Z,63.33
2022-09-28T12:55:36.810Z,61.72
2022-09-28T12:57:55.886Z,60.20
2022-09-28T13:00:08.113Z,61.37
2022-09-28T13:02:49.337Z,61.32
2022-09-28T13:05:11.701Z,59.67
2022-09-28T13:07:29.377Z,60.75
2022-09-28T13:09:54.157Z,63.32
2022-09-28T13:12:13.650Z,61.81
2022-09-28T13:15:01.702Z,61.41
2022-09-28T13:17:23.276Z,61.24
2022-09-28T13:19:41.867Z,58.51
2022-09-28T13:21:58.053Z,58.86
2022-09-28T13:24:31.117Z,58.59
2022-09-28T13:26:44.365Z,57.11
2022-09-28T13:28:56.221Z,59.30
2022-09-28T13:31:05.288Z,60.87
2022-09-28T13:33:22.431Z,61.03
2022-09-28T13:35:33.290Z,61.74
2022-09-28T13:37:41.742Z,62.48
2022-09-28T13:39:56.638Z,61.69
2022-09-28T13:42:10.254Z,60.70
2022-09-28T13:44:40.191Z,61.24
2022-09-28T13:47:00.927Z,59.67
2022-09-28T13:49:18.987Z,61.20
2022-09-28T13:51:42.134Z,59.18
2022-09-28T13:54:11.061Z,60.73
2022-09-28T13:56:32.148Z,59.40
2022-09-28T13:58:49.940Z,61.27
2022-09-28T14:01:07.309Z,61.37
2022-09-28T14:03:29.429Z,59.39
2022-09-28T14:05:49.438Z,59.75
2022-09-28T14:08:20.919Z,60.78
2022-09-28T14:10:52.783Z,60.20
2022-09-28T14:13:03.148Z,59.04
2022-09-28T14:15:45.166Z,58.31
2022-09-28T14:18:04.495Z,58.46
2022-09-28T14:20:17.795Z,58.44
2022-09-28T14:22:32.695Z,57.71
2022-09-28T14:25:06.721Z,58.34
2022-09-28T14:27:52.756Z,59.24
2022-09-28T14:30:19.674Z,59.74
2022-09-28T14:32:37.178Z,61.41
2022-09-28T14:34:48.739Z,60.82
2022-09-28T14:37:13.460Z,60.41
2022-09-28T14:39:38.238Z,61.95
2022-09-28T14:41:59.091Z,61.84
2022-09-28T14:44:11.591Z,63.14
2022-09-28T14:46:37.922Z,61.83
2022-09-28T14:48:52.831Z,64.81
2022-09-28T14:51:38.240Z,64.58
2022-09-28T14:53:48.633Z,64.08
2022-09-28T14:58:33.866Z,64.75
2022-09-28T15:00:46.526Z,65.97
2022-09-28T15:02:58.174Z,64.94
2022-09-28T15:05:20.028Z,64.85
2022-09-28T15:07:34.396Z,67.33
2022-09-28T15:09:44.542Z,67.34
2022-09-28T15:11:57.703Z,66.21
2022-09-28T15:14:11.498Z,67.25
2022-09-28T15:16:20.955Z,67.78
2022-09-28T15:18:50.443Z,65.01
2022-09-28T15:21:02.181Z,66.61
2022-09-28T15:23:27.886Z,66.47
2022-09-28T15:25:36.539Z,64.38
2022-09-28T15:27:48.469Z,65.00
2022-09-28T15:30:02.570Z,63.76
2022-09-28T15:32:27.138Z,65.80
2022-09-28T15:34:49.120Z,66.07
2022-09-28T15:37:00.344Z,67.18
2022-09-28T15:39:15.574Z,65.80
2022-09-28T15:41:25.187Z,66.27
2022-09-28T15:43:37.967Z,65.61
2022-09-28T15:46:03.106Z,65.75
2022-09-28T15:48:32.220Z,67.18
2022-09-28T15:50:45.874Z,68.06
2022-09-28T15:53:03.626Z,67.62
2022-09-28T15:55:23.898Z,69.54
2022-09-28T15:57:37.020Z,68.91
2022-09-28T15:59:59.828Z,69.58
2022-09-28T16:02:15.708Z,69.77
2022-09-28T16:04:40.187Z,70.06
2022-09-28T16:07:09.298Z,70.64
2022-09-28T16:09:55.901Z,70.70
2022-09-28T16:12:13.121Z,71.72
2022-09-28T16:14:24.662Z,71.40
2022-09-28T16:16:41.173Z,71.88
2022-09-28T16:18:53.193Z,73.09
2022-09-28T16:21:28.476Z,73.02
2022-09-28T16:23:37.590Z,74.42
2022-09-28T16:25:56.026Z,75.57
2022-09-28T16:28:04.625Z,75.25
2022-09-28T16:30:24.840Z,75.38
2022-09-28T16:32:41.945Z,75.51
2022-09-28T16:34:53.821Z,76.55
2022-09-28T16:37:01.932Z,77.58
2022-09-28T16:39:11.552Z,77.57
2022-09-28T16:41:26.057Z,79.86
2022-09-28T16:43:36.783Z,79.84
2022-09-28T16:45:45.168Z,79.16
2022-09-28T16:47:54.651Z,78.78
2022-09-28T16:50:03.045Z,80.05
2022-09-28T16:52:34.780Z,80.20
2022-09-28T16:54:55.302Z,81.47
2022-09-28T16:57:08.488Z,82.52
2022-09-28T16:59:17.093Z,83.65
2022-09-28T17:01:25.923Z,83.60
2022-09-28T17:03:34.707Z,84.35
2022-09-28T17:05:43.165Z,86.37
2022-09-28T17:07:52.826Z,85.58
2022-09-28T17:10:01.432Z,86.61
2022-09-28T17:12:19.402Z,87.63
2022-09-28T17:14:27.800Z,86.90
2022-09-28T17:17:06.251Z,87.85
2022-09-28T17:19:05.060Z,88.23
2022-09-28T17:21:16.042Z,88.08
2022-09-28T17:23:24.204Z,88.09
2022-09-28T17:25:33.420Z,88.60
2022-09-28T17:27:48.229Z,89.57
2022-09-28T17:29:56.805Z,90.38
2022-09-28T17:32:05.914Z,90.15
2022-09-28T17:34:15.504Z,90.69
2022-09-28T17:36:25.761Z,91.26
2022-09-28T17:38:36.634Z,92.09
2022-09-28T17:40:48.297Z,93.36
2022-09-28T17:43:00.787Z,94.13
2022-09-28T17:45:09.906Z,95.03
2022-09-28T17:47:17.951Z,95.86
2022-09-28T17:49:26.487Z,97.10
2022-09-28T17:51:38.411Z,98.24
2022-09-28T17:53:46.446Z,98.73
2022-09-28T17:55:54.783Z,99.50
2022-09-28T17:58:20.543Z,100.00
2022-09-28T18:00:29.235Z,100.00
2022-09-28T18:02:37.159Z,100.00
2022-09-28T18:04:52.069Z,100.00
2022-09-28T18:07:00.680Z,100.00
2022-09-28T18:09:13.400Z,100.00
2022-09-28T18:11:21.605Z,100.00
2022-09-28T18:13:32.235Z,100.00
2022-09-28T18:15:43.287Z,100.00
2022-09-28T18:17:52.153Z,100.00
2022-09-28T18:20:00.365Z,100.00
2022-09-28T18:22:10.299Z,100.00
2022-09-28T18:24:20.675Z,100.00
2022-09-28T18:26:30.524Z,100.00
2022-09-28T18:28:41.773Z,100.00
2022-09-28T18:30:51.971Z,100.00
2022-09-28T18:33:00.095Z,100.00
2022-09-28T18:35:11.603Z,100.00
2022-09-28T18:37:20.089Z,100.00
2022-09-28T18:39:28.709Z,100.00
2022-09-28T18:41:38.431Z,100.00
2022-09-28T18:43:53.253Z,100.00
2022-09-28T18:46:01.850Z,100.00
2022-09-28T18:48:10.082Z,100.00
2022-09-28T18:50:18.464Z,100.00
2022-09-28T18:52:26.383Z,100.00
2022-09-28T18:54:34.859Z,100.00
2022-09-28T18:56:42.987Z,100.00
2022-09-28T18:58:53.647Z,100.00
2022-09-28T19:01:25.444Z,100.00
2022-09-28T19:03:29.507Z,100.00
2022-09-28T19:05:37.531Z,100.00
2022-09-28T19:07:45.721Z,100.00
2022-09-28T19:09:53.886Z,100.00
2022-09-28T19:12:01.777Z,100.00
2022-09-28T19:14:15.242Z,100.00
2022-09-28T19:16:25.413Z,100.00
2022-09-28T19:18:34.010Z,100.00
2022-09-28T19:20:42.265Z,100.00
2022-09-28T19:22:52.367Z,100.00
2022-09-28T19:25:03.550Z,100.00
2022-09-28T19:27:19.476Z,100.00
2022-09-28T19:29:32.616Z,100.00
2022-09-28T19:31:41.428Z,100.00
2022-09-28T19:33:49.513Z,100.00
2022-09-28T19:36:00.095Z,100.00
2022-09-28T19:38:08.045Z,100.00
2022-09-28T19:40:16.107Z,100.00
2022-09-28T19:42:24.253Z,100.00
2022-09-28T19:44:37.516Z,100.00
2022-09-28T19:46:50.480Z,100.00
2022-09-28T19:48:59.914Z,100.00
2022-09-28T19:51:09.630Z,100.00
2022-09-28T19:53:18.161Z,100.00
2022-09-28T19:55:29.353Z,100.00
2022-09-28T19:57:38.161Z,100.00
2022-09-28T19:59:52.523Z,100.00
2022-09-28T20:02:02.254Z,100.00
2022-09-28T20:04:13.810Z,100.00
2022-09-28T20:06:22.034Z,100.00
2022-09-28T20:08:30.525Z,100.00
2022-09-28T20:10:40.291Z,100.00
2022-09-28T20:12:49.672Z,100.00
2022-09-28T20:15:00.364Z,100.00
2022-09-28T20:17:08.605Z,100.00
2022-09-28T20:19:19.065Z,100.00
2022-09-28T20:21:28.712Z,100.00
2022-09-28T20:23:38.618Z,100.00
2022-09-28T20:25:47.330Z,100.00
2022-09-28T20:27:55.725Z,100.00
2022-09-28T20:30:07.324Z,100.00
2022-09-28T20:32:15.350Z,100.00
2022-09-28T20:34:23.667Z,100.00
2022-09-28T20:36:32.658Z,100.00
2022-09-28T20:38:41.094Z,100.00
2022-09-28T20:40:50.293Z,100.00
2022-09-28T20:42:58.460Z,100.00
2022-09-28T20:45:09.976Z,100.00
2022-09-28T20:47:18.019Z,100.00
2022-09-28T20:49:27.585Z,100.00
2022-09-28T20:51:38.208Z,100.00
2022-09-28T20:53:50.923Z,100.00
2022-09-28T20:56:02.985Z,100.00
2022-09-28T20:58:11.466Z,100.00
2022-09-28T21:00:25.027Z,100.00
2022-09-28T21:02:33.610Z,100.00
2022-09-28T21:04:43.310Z,100.00
2022-09-28T21:06:52.276Z,100.00
2022-09-28T21:09:03.818Z,100.00
2022-09-28T21:11:12.484Z,100.00
2022-09-28T21:13:21.153Z,100.00
2022-09-28T21:15:32.397Z,100.00
2022-09-28T21:17:41.078Z,100.00
2022-09-28T21:19:49.765Z,100.00
2022-09-28T21:22:02.514Z,100.00
2022-09-28T21:24:11.597Z,100.00
2022-09-28T21:26:27.231Z,100.00
2022-09-28T21:28:41.672Z,100.00
2022-09-28T21:30:54.893Z,100.00
2022-09-28T21:33:04.664Z,100.00
2022-09-28T21:35:15.719Z,100.00
2022-09-28T21:37:23.749Z,100.00
2022-09-28T21:39:34.414Z,100.00
2022-09-28T21:41:43.076Z,100.00
2022-09-28T21:43:51.696Z,100.00
2022-09-28T21:46:02.905Z,100.00
2022-09-28T21:48:11.580Z,100.00
2022-09-28T21:50:19.942Z,100.00
2022-09-28T21:52:28.549Z,100.00
2022-09-28T21:54:37.487Z,100.00
2022-09-28T21:56:45.856Z,100.00
2022-09-28T21:58:54.307Z,100.00
2022-09-28T22:01:13.774Z,100.00
2022-09-28T22:03:21.878Z,100.00
2022-09-28T22:05:30.544Z,100.00
2022-09-28T22:07:38.923Z,100.00
2022-09-28T22:09:51.557Z,100.00
2022-09-28T22:12:01.476Z,100.00
2022-09-28T22:14:10.529Z,100.00
2022-09-28T22:16:23.424Z,100.00
2022-09-28T22:18:34.252Z,100.00
2022-09-28T22:20:43.461Z,100.00
2022-09-28T22:22:54.161Z,100.00
2022-09-28T22:25:02.628Z,100.00
2022-09-28T22:27:11.248Z,100.00
2022-09-28T22:29:21.873Z,100.00
2022-09-28T22:31:38.847Z,100.00
2022-09-28T22:33:49.644Z,100.00
2022-09-28T22:35:58.286Z,100.00
2022-09-28T22:38:06.669Z,100.00
2022-09-28T22:40:16.029Z,100.00
2022-09-28T22:42:24.337Z,100.00
2022-09-28T22:44:32.342Z,100.00
2022-09-28T22:46:46.435Z,100.00
2022-09-28T22:48:56.388Z,100.00
2022-09-28T22:51:06.371Z,100.00
2022-09-28T22:53:15.302Z,100.00
2022-09-28T22:55:26.546Z,100.00
2022-09-28T22:57:35.830Z,100.00
2022-09-28T22:59:52.092Z,100.00
2022-09-28T23:02:06.006Z,100.00
2022-09-28T23:04:15.320Z,100.00
2022-09-28T23:06:24.509Z,100.00
2022-09-28T23:08:33.025Z,100.00
2022-09-28T23:10:41.021Z,100.00
2022-09-28T23:12:49.399Z,100.00
2022-09-28T23:14:57.533Z,100.00
2022-09-28T23:17:08.673Z,100.00
2022-09-28T23:19:17.160Z,100.00
2022-09-28T23:21:27.285Z,100.00
2022-09-28T23:23:36.199Z,100.00
2022-09-28T23:25:44.511Z,100.00
2022-09-28T23:27:53.964Z,100.00
2022-09-28T23:30:02.274Z,100.00
2022-09-28T23:32:17.042Z,100.00
2022-09-28T23:34:25.521Z,100.00
2022-09-28T23:36:34.339Z,100.00
2022-09-28T23:38:42.852Z,100.00
2022-09-28T23:40:51.341Z,100.00
2022-09-28T23:42:59.774Z,100.00
2022-09-28T23:45:09.022Z,100.00
2022-09-28T23:47:19.979Z,100.00
2022-09-28T23:49:28.797Z,100.00
2022-09-28T23:51:37.401Z,100.00
2022-09-28T23:53:46.336Z,100.00
2022-09-28T23:55:54.799Z,100.00
2022-09-28T23:58:03.086Z,100.00
